Terminal Aerodrome Forecast
Issued by NWS Quad Cities IA IL

Home | Current Version | Previous Version | Text Only | Print | Product List | Glossary On
Versions: 1 2 3 4 5 6 7 8 9 10 11 12 13 14
900
FTUS43 KDVN 191120
TAFMLI
TAF
KMLI 191120Z 1912/2012 VRB03KT P6SM SCT250
     FM192100 14005KT P6SM FEW250=

USA.gov is the U.S. government's official web portal to all federal, state and local government web resources and services.